Terminal Aerodrome Forecast
Issued by NWS Greer, SC

Home | Current Version | Previous Version | Text Only | Print | Product List | Glossary On
Versions: 1 2 3 4 5 6 7 8 9 10 11 12 13 14 15 16 17 18 19 20 21 22 23 24 25
000
FTUS42 KGSP 240855 AAA
TAFCLT
TAF AMD
KCLT 240855Z 2409/2506 24008KT P6SM SCT015 BKN060 OVC200
      TEMPO 2409/2411 6SM BR BKN015
     FM241100 23007KT P6SM VCSH BKN045
     FM241800 24006KT P6SM VCTS BKN040CB PROB30 2418/2424 4SM -TSRA
      OVC025CB
     FM250000 24004KT P6SM OVC040=

USA.gov is the U.S. government's official web portal to all federal, state and local government web resources and services.